Time;durP1;ratioP1;P1;durP2;ratioP2;P2;SDS_P1;SDS_P2;PMS_P1;PMS_P2;Temp;Humidity;BMP_temperature;BMP_pressure;BME280_temperature;BME280_humidity;BME280_pressure;Samples;Min_cycle;Max_cycle;Signal;HPM_P1;HPM_P2
2023/05/20 02:01:21;;;;;;;39.03;17.20;;;;;;;;;;4660164;28;20061;-79
2023/05/20 02:03:47;;;;;;;37.05;17.05;;;;;;;;;;4281229;33;20091;-78
2023/05/20 02:06:13;;;;;;;36.45;17.40;;;;;;;;;;4277104;33;20053;-80
2023/05/20 02:08:39;;;;;;;37.90;17.02;;;;;;;;;;4279923;33;20071;-81
2023/05/20 02:11:05;;;;;;;32.20;16.60;;;;;;;;;;4278863;33;20038;-82
2023/05/20 02:13:32;;;;;;;37.80;18.12;;;;;;;;;;4279823;33;20103;-82
2023/05/20 02:15:57;;;;;;;45.10;18.35;;;;;;;;;;4293442;33;20855;-82
2023/05/20 02:18:25;;;;;;;43.25;18.48;;;;;;;;;;4293659;33;20046;-82
2023/05/20 02:20:51;;;;;;;50.22;20.75;;;;;;;;;;4290434;33;20060;-76
2023/05/20 02:23:19;;;;;;;42.60;19.10;;;;;;;;;;4293332;33;20114;-83
2023/05/20 02:25:45;;;;;;;38.05;18.85;;;;;;;;;;4292815;33;20089;-83
2023/05/20 02:28:12;;;;;;;52.58;19.15;;;;;;;;;;4293356;33;20036;-83
2023/05/20 02:30:38;;;;;;;40.88;18.40;;;;;;;;;;4280562;33;20093;-83
2023/05/20 02:33:05;;;;;;;40.50;18.12;;;;;;;;;;4291754;33;20435;-77
2023/05/20 02:35:31;;;;;;;45.03;19.40;;;;;;;;;;4278286;33;20038;-83
2023/05/20 02:37:58;;;;;;;42.75;18.48;;;;;;;;;;4264332;33;20071;-83
2023/05/20 02:40:24;;;;;;;35.53;17.67;;;;;;;;;;4242034;33;20118;-83
2023/05/20 02:42:50;;;;;;;39.00;18.25;;;;;;;;;;4223395;33;20059;-82
2023/05/20 02:45:16;;;;;;;40.67;17.85;;;;;;;;;;4222933;33;20221;-77
2023/05/20 02:47:44;;;;;;;42.17;19.35;;;;;;;;;;4225099;33;20079;-83
2023/05/20 02:50:10;;;;;;;47.33;18.12;;;;;;;;;;4210539;34;20413;-81
2023/05/20 02:52:38;;;;;;;38.08;17.48;;;;;;;;;;4211202;34;20056;-82
2023/05/20 02:55:05;;;;;;;42.78;18.10;;;;;;;;;;4211131;34;20038;-84
2023/05/20 02:57:32;;;;;;;44.75;17.95;;;;;;;;;;4209025;34;20134;-82
2023/05/20 02:59:59;;;;;;;51.13;19.70;;;;;;;;;;4209790;34;20047;-77
2023/05/20 03:02:25;;;;;;;34.25;17.33;;;;;;;;;;4228223;33;20072;-83
2023/05/20 03:04:53;;;;;;;52.80;18.75;;;;;;;;;;4224476;33;20149;-81
2023/05/20 03:07:21;;;;;;;45.80;17.48;;;;;;;;;;4223491;33;20042;-81
2023/05/20 03:09:48;;;;;;;36.70;16.80;;;;;;;;;;4234059;33;20039;-82
2023/05/20 03:12:14;;;;;;;37.13;16.73;;;;;;;;;;4245654;33;20059;-82
2023/05/20 03:14:40;;;;;;;37.30;18.25;;;;;;;;;;4238278;33;20195;-81
2023/05/20 03:17:07;;;;;;;36.90;17.73;;;;;;;;;;4238153;33;20051;-80
2023/05/20 03:19:33;;;;;;;46.55;18.48;;;;;;;;;;4225056;33;20032;-77
2023/05/20 03:22:00;;;;;;;40.35;17.83;;;;;;;;;;4245841;33;20764;-81
2023/05/20 03:24:26;;;;;;;38.55;15.70;;;;;;;;;;4252149;33;20038;-81
2023/05/20 03:26:52;;;;;;;36.03;16.70;;;;;;;;;;4264678;33;20048;-81
2023/05/20 03:29:18;;;;;;;28.70;15.65;;;;;;;;;;4280871;33;20092;-82
2023/05/20 03:31:45;;;;;;;35.80;15.70;;;;;;;;;;4270607;33;20045;-82
2023/05/20 03:34:11;;;;;;;29.75;13.93;;;;;;;;;;4279920;33;20063;-82
2023/05/20 03:36:38;;;;;;;33.30;16.15;;;;;;;;;;4293094;33;20058;-82
2023/05/20 03:39:04;;;;;;;32.65;15.27;;;;;;;;;;4297293;33;20389;-81
2023/05/20 03:41:31;;;;;;;31.50;14.95;;;;;;;;;;4277838;33;20065;-82
2023/05/20 03:43:57;;;;;;;27.95;13.88;;;;;;;;;;4293143;33;20045;-82
2023/05/20 03:46:24;;;;;;;33.08;13.45;;;;;;;;;;4295416;33;20061;-82
2023/05/20 03:48:50;;;;;;;31.08;14.45;;;;;;;;;;4297702;33;20045;-80
2023/05/20 03:51:16;;;;;;;23.42;12.90;;;;;;;;;;4291184;33;20064;-81
2023/05/20 03:53:43;;;;;;;39.15;15.23;;;;;;;;;;4297175;33;20037;-81
2023/05/20 03:56:09;;;;;;;31.52;14.93;;;;;;;;;;4296147;33;20049;-80
2023/05/20 03:58:37;;;;;;;30.73;14.30;;;;;;;;;;4283062;33;20073;-80
2023/05/20 04:01:04;;;;;;;31.65;15.80;;;;;;;;;;4282525;33;20080;-80
2023/05/20 04:03:30;;;;;;;31.85;17.42;;;;;;;;;;4280517;33;20049;-80
2023/05/20 04:05:57;;;;;;;33.42;15.52;;;;;;;;;;4280068;33;20045;-80
2023/05/20 04:08:24;;;;;;;31.40;15.60;;;;;;;;;;4279449;33;20501;-79
2023/05/20 04:10:54;;;;;;;32.63;16.58;;;;;;;;;;4288925;33;20079;-80
2023/05/20 04:13:21;;;;;;;36.92;16.62;;;;;;;;;;4294818;33;20104;-80
2023/05/20 04:15:47;;;;;;;25.50;14.80;;;;;;;;;;4293856;33;20045;-80
2023/05/20 04:18:14;;;;;;;31.75;16.75;;;;;;;;;;4282571;33;20419;-76
2023/05/20 04:20:40;;;;;;;27.40;15.15;;;;;;;;;;4250801;33;20129;-81
2023/05/20 04:23:07;;;;;;;31.37;14.80;;;;;;;;;;4251910;33;20499;-82
2023/05/20 04:25:34;;;;;;;32.13;14.75;;;;;;;;;;4251797;33;20383;-79
2023/05/20 04:28:01;;;;;;;33.60;15.25;;;;;;;;;;4251478;33;20455;-80
2023/05/20 04:30:28;;;;;;;30.02;14.63;;;;;;;;;;4251414;33;20047;-83
2023/05/20 04:32:55;;;;;;;32.63;16.48;;;;;;;;;;4272968;33;20034;-80
2023/05/20 04:35:24;;;;;;;29.12;15.07;;;;;;;;;;4256318;33;20084;-81
2023/05/20 04:37:53;;;;;;;30.92;15.20;;;;;;;;;;4256716;33;20042;-80
2023/05/20 04:40:21;;;;;;;35.17;15.52;;;;;;;;;;4272588;33;20045;-78
2023/05/20 04:42:47;;;;;;;22.55;13.57;;;;;;;;;;4276419;33;20060;-76
2023/05/20 04:45:14;;;;;;;35.90;13.35;;;;;;;;;;4279928;33;20049;-80
2023/05/20 04:47:43;;;;;;;29.95;14.02;;;;;;;;;;4279823;33;20838;-80
2023/05/20 04:50:09;;;;;;;35.20;13.62;;;;;;;;;;4244490;33;20068;-80
2023/05/20 04:52:38;;;;;;;25.90;14.02;;;;;;;;;;4260558;33;20046;-81
2023/05/20 04:55:07;;;;;;;22.23;11.48;;;;;;;;;;4265276;33;20053;-80
2023/05/20 04:57:34;;;;;;;23.42;13.13;;;;;;;;;;4265568;33;20463;-81
2023/05/20 05:00:00;;;;;;;26.10;13.50;;;;;;;;;;4264455;33;20063;-80
2023/05/20 05:02:27;;;;;;;28.42;14.52;;;;;;;;;;4263820;33;20101;-79
2023/05/20 05:04:53;;;;;;;26.05;13.90;;;;;;;;;;4261399;33;20058;-80
2023/05/20 05:07:19;;;;;;;25.02;12.05;;;;;;;;;;4241433;33;20038;-78
2023/05/20 05:09:47;;;;;;;18.92;11.80;;;;;;;;;;4245568;33;20066;-79
2023/05/20 05:12:13;;;;;;;18.90;12.73;;;;;;;;;;4251067;33;20042;-80
2023/05/20 05:14:40;;;;;;;26.48;11.68;;;;;;;;;;4249055;33;20439;-79
2023/05/20 05:17:06;;;;;;;21.12;11.93;;;;;;;;;;4250027;33;20067;-83
2023/05/20 05:19:32;;;;;;;24.50;12.02;;;;;;;;;;4251056;33;20057;-83
2023/05/20 05:21:58;;;;;;;18.92;11.80;;;;;;;;;;4261655;33;20451;-80
2023/05/20 05:24:25;;;;;;;24.75;13.10;;;;;;;;;;4244607;33;20046;-81
2023/05/20 05:26:54;;;;;;;21.85;11.60;;;;;;;;;;4235712;33;20031;-78
2023/05/20 05:29:20;;;;;;;21.20;11.05;;;;;;;;;;4221284;33;20051;-83
2023/05/20 05:31:46;;;;;;;21.95;11.63;;;;;;;;;;4221762;33;20050;-79
2023/05/20 05:34:12;;;;;;;24.73;12.13;;;;;;;;;;4221581;33;20046;-80
2023/05/20 05:36:39;;;;;;;18.80;11.48;;;;;;;;;;4220549;33;20154;-83
2023/05/20 05:39:12;;;;;;;22.90;11.43;;;;;;;;;;4227979;33;20367;-84
2023/05/20 05:41:39;;;;;;;29.87;11.43;;;;;;;;;;4219618;33;20068;-83
2023/05/20 05:44:06;;;;;;;25.30;12.02;;;;;;;;;;4221999;33;20141;-82
2023/05/20 05:46:32;;;;;;;24.30;12.48;;;;;;;;;;4211573;33;20397;-84
2023/05/20 05:48:59;;;;;;;23.27;11.27;;;;;;;;;;4222171;33;20467;-81
2023/05/20 05:51:27;;;;;;;20.30;11.30;;;;;;;;;;4213107;34;20489;-82
2023/05/20 05:53:54;;;;;;;22.48;12.15;;;;;;;;;;4194630;34;20101;-84
2023/05/20 05:56:20;;;;;;;26.87;11.23;;;;;;;;;;4206003;34;20039;-84
2023/05/20 05:58:47;;;;;;;25.55;11.88;;;;;;;;;;4208180;34;20052;-83
2023/05/20 06:01:13;;;;;;;22.15;10.48;;;;;;;;;;4217276;34;20039;-85
2023/05/20 06:03:40;;;;;;;18.98;9.90;;;;;;;;;;4226839;33;20086;-86
2023/05/20 06:06:06;;;;;;;20.25;11.73;;;;;;;;;;4226167;33;20042;-83
2023/05/20 06:08:32;;;;;;;18.37;10.55;;;;;;;;;;4224640;33;20484;-84
2023/05/20 06:10:59;;;;;;;17.92;11.05;;;;;;;;;;4232532;33;20056;-85
2023/05/20 06:13:25;;;;;;;19.40;11.82;;;;;;;;;;4256780;33;20045;-84
2023/05/20 06:15:52;;;;;;;22.77;11.75;;;;;;;;;;4263609;33;20068;-82
2023/05/20 06:18:25;;;;;;;20.50;11.52;;;;;;;;;;4268304;33;20037;-84
2023/05/20 06:20:57;;;;;;;18.15;10.98;;;;;;;;;;4268282;33;20882;-82
2023/05/20 06:23:24;;;;;;;24.30;10.57;;;;;;;;;;4281477;33;20083;-84
2023/05/20 06:25:56;;;;;;;22.42;10.82;;;;;;;;;;4290625;33;20071;-85
2023/05/20 06:28:22;;;;;;;19.20;10.40;;;;;;;;;;4285120;33;20481;-82
2023/05/20 06:30:48;;;;;;;25.00;9.65;;;;;;;;;;4295939;33;20058;-81
2023/05/20 06:33:14;;;;;;;17.10;9.80;;;;;;;;;;4287011;33;20526;-84
2023/05/20 06:35:41;;;;;;;19.25;10.52;;;;;;;;;;4284717;33;20457;-81
2023/05/20 06:38:07;;;;;;;21.98;9.90;;;;;;;;;;4284913;33;20053;-85
2023/05/20 06:40:33;;;;;;;14.38;9.20;;;;;;;;;;4284471;33;20075;-82
2023/05/20 06:42:59;;;;;;;14.23;9.00;;;;;;;;;;4284302;33;20053;-80
2023/05/20 06:45:28;;;;;;;24.12;9.18;;;;;;;;;;4282039;33;20068;-83
2023/05/20 06:47:55;;;;;;;18.15;9.65;;;;;;;;;;4285375;33;20054;-84
2023/05/20 06:50:21;;;;;;;16.42;10.23;;;;;;;;;;4283380;33;20062;-86
2023/05/20 06:52:47;;;;;;;15.25;8.82;;;;;;;;;;4285721;33;20071;-88
2023/05/20 06:55:14;;;;;;;15.00;7.62;;;;;;;;;;4282423;33;20068;-77
2023/05/20 06:57:40;;;;;;;16.05;9.20;;;;;;;;;;4282510;33;20515;-82
2023/05/20 07:00:07;;;;;;;12.70;8.13;;;;;;;;;;4283436;33;20391;-82
2023/05/20 07:02:35;;;;;;;11.73;7.90;;;;;;;;;;4281466;33;20808;-78
2023/05/20 07:05:01;;;;;;;13.82;7.55;;;;;;;;;;4282916;33;20071;-83
2023/05/20 07:07:27;;;;;;;11.23;8.18;;;;;;;;;;4281904;33;20407;-79
2023/05/20 07:09:54;;;;;;;19.48;7.87;;;;;;;;;;4294426;33;20756;-80
2023/05/20 07:12:20;;;;;;;19.65;9.50;;;;;;;;;;4276959;33;20149;-79
2023/05/20 07:14:46;;;;;;;14.70;9.48;;;;;;;;;;4280882;33;20142;-78
2023/05/20 07:17:12;;;;;;;19.35;8.80;;;;;;;;;;4275379;33;20033;-81
2023/05/20 07:19:38;;;;;;;12.37;8.02;;;;;;;;;;4276421;33;20541;-75
2023/05/20 07:22:05;;;;;;;28.92;9.50;;;;;;;;;;4268783;33;20053;-79
2023/05/20 07:24:31;;;;;;;11.52;8.35;;;;;;;;;;4275616;33;20067;-79
2023/05/20 07:26:57;;;;;;;13.80;8.07;;;;;;;;;;4252227;33;20307;-82
2023/05/20 07:29:24;;;;;;;13.02;7.78;;;;;;;;;;4251562;33;20076;-79
2023/05/20 07:31:50;;;;;;;18.83;8.50;;;;;;;;;;4249854;33;20037;-78
2023/05/20 07:34:17;;;;;;;13.48;8.15;;;;;;;;;;4251957;33;20333;-80
2023/05/20 07:36:43;;;;;;;17.80;8.45;;;;;;;;;;4243201;33;20079;-80
2023/05/20 07:39:10;;;;;;;15.65;7.78;;;;;;;;;;4240326;33;20046;-80
2023/05/20 07:41:36;;;;;;;16.50;7.55;;;;;;;;;;4242639;33;20057;-77
2023/05/20 07:44:04;;;;;;;18.40;7.43;;;;;;;;;;4254120;33;20049;-82
2023/05/20 07:46:31;;;;;;;11.12;7.18;;;;;;;;;;4252106;33;20060;-82
2023/05/20 07:48:57;;;;;;;15.20;8.63;;;;;;;;;;4250946;33;20569;-79
2023/05/20 07:51:23;;;;;;;17.10;8.13;;;;;;;;;;4249328;33;20050;-79
2023/05/20 07:53:49;;;;;;;14.07;7.62;;;;;;;;;;4248905;33;20060;-82
2023/05/20 07:56:15;;;;;;;11.23;7.90;;;;;;;;;;4251715;33;20043;-82
2023/05/20 07:58:42;;;;;;;19.35;8.18;;;;;;;;;;4265488;33;20054;-80
2023/05/20 08:01:15;;;;;;;14.75;8.90;;;;;;;;;;4279522;33;20187;-79
2023/05/20 08:03:42;;;;;;;13.05;7.85;;;;;;;;;;4279812;33;20038;-80
2023/05/20 08:06:08;;;;;;;15.90;7.78;;;;;;;;;;4278777;33;20097;-79
2023/05/20 08:08:35;;;;;;;13.55;7.82;;;;;;;;;;4279841;33;20079;-78
2023/05/20 08:11:10;;;;;;;13.02;8.50;;;;;;;;;;4279175;33;20041;-78
2023/05/20 08:13:36;;;;;;;16.12;7.90;;;;;;;;;;4251167;33;20060;-75
2023/05/20 08:16:04;;;;;;;15.00;8.20;;;;;;;;;;4262295;33;20046;-81
2023/05/20 08:18:34;;;;;;;19.45;7.78;;;;;;;;;;4265439;33;20069;-84
2023/05/20 08:20:59;;;;;;;14.68;7.40;;;;;;;;;;4265185;33;20083;-82
2023/05/20 08:23:26;;;;;;;13.00;7.95;;;;;;;;;;4265218;33;20058;-81
2023/05/20 08:25:52;;;;;;;11.90;7.87;;;;;;;;;;4264782;33;20052;-83
2023/05/20 08:28:20;;;;;;;19.17;9.02;;;;;;;;;;4270068;33;20075;-82
2023/05/20 08:30:47;;;;;;;14.40;8.15;;;;;;;;;;4263821;33;20083;-80
2023/05/20 08:33:14;;;;;;;11.43;7.95;;;;;;;;;;4263860;33;20608;-83
2023/05/20 08:35:40;;;;;;;14.02;8.25;;;;;;;;;;4263228;33;20050;-80
2023/05/20 08:38:06;;;;;;;18.60;8.38;;;;;;;;;;4250374;33;20132;-80
2023/05/20 08:40:35;;;;;;;14.43;8.82;;;;;;;;;;4235499;33;20085;-80
2023/05/20 08:43:03;;;;;;;13.70;9.23;;;;;;;;;;4240492;33;20062;-79
2023/05/20 08:45:32;;;;;;;13.73;8.32;;;;;;;;;;4259113;33;20092;-85
2023/05/20 08:47:59;;;;;;;16.85;9.45;;;;;;;;;;4262781;33;20088;-81
2023/05/20 08:50:25;;;;;;;14.90;9.32;;;;;;;;;;4257696;33;20537;-79
2023/05/20 08:52:52;;;;;;;12.90;8.57;;;;;;;;;;4264680;33;20077;-86
2023/05/20 08:55:25;;;;;;;15.40;8.75;;;;;;;;;;4238855;33;20086;-86
2023/05/20 08:57:53;;;;;;;13.73;8.35;;;;;;;;;;4226320;33;20078;-86
2023/05/20 09:00:22;;;;;;;15.40;9.05;;;;;;;;;;4236466;33;20079;-87
2023/05/20 09:02:48;;;;;;;17.90;8.48;;;;;;;;;;4236399;33;20047;-85
2023/05/20 09:05:14;;;;;;;11.48;7.85;;;;;;;;;;4235794;33;20042;-86
2023/05/20 09:07:42;;;;;;;18.30;9.00;;;;;;;;;;4234853;33;20058;-78
2023/05/20 09:10:08;;;;;;;11.40;8.40;;;;;;;;;;4259079;33;20057;-78
2023/05/20 09:12:35;;;;;;;31.70;9.32;;;;;;;;;;4264425;33;20062;-78
2023/05/20 09:15:01;;;;;;;13.43;7.47;;;;;;;;;;4236919;33;20043;-78
2023/05/20 09:17:27;;;;;;;17.80;7.85;;;;;;;;;;4241658;33;20502;-78
2023/05/20 09:19:53;;;;;;;14.43;8.35;;;;;;;;;;4245109;33;20098;-77
2023/05/20 09:22:28;;;;;;;13.57;8.30;;;;;;;;;;4230019;33;20062;-77
2023/05/20 09:24:54;;;;;;;15.20;8.35;;;;;;;;;;4233054;33;20068;-76
2023/05/20 09:27:21;;;;;;;18.62;8.52;;;;;;;;;;4259109;33;20076;-75
2023/05/20 09:29:47;;;;;;;12.95;8.73;;;;;;;;;;4252413;33;20053;-76
2023/05/20 09:32:14;;;;;;;17.00;8.82;;;;;;;;;;4249520;33;20072;-77
2023/05/20 09:34:41;;;;;;;12.90;8.43;;;;;;;;;;4249701;33;20925;-77
2023/05/20 09:37:08;;;;;;;24.67;10.02;;;;;;;;;;4249702;33;20068;-77
2023/05/20 09:39:39;;;;;;;12.18;8.75;;;;;;;;;;4221643;34;20453;-77
2023/05/20 09:42:06;;;;;;;;;;;;;;;;;;4221044;33;20110;-75
2023/05/20 09:44:32;;;;;;;15.57;9.02;;;;;;;;;;4220081;33;20261;-77
2023/05/20 09:47:00;;;;;;;15.90;10.07;;;;;;;;;;4232291;33;20129;-77
2023/05/20 09:49:27;;;;;;;17.50;9.70;;;;;;;;;;4235856;33;20069;-77
2023/05/20 09:51:53;;;;;;;11.77;9.15;;;;;;;;;;4220897;33;20498;-77
2023/05/20 09:54:20;;;;;;;15.98;9.07;;;;;;;;;;4214584;34;20090;-77
2023/05/20 09:56:47;;;;;;;16.42;9.43;;;;;;;;;;4211099;34;20063;-73
2023/05/20 09:59:15;;;;;;;16.85;9.73;;;;;;;;;;4208390;34;20101;-74
2023/05/20 10:01:41;;;;;;;11.12;8.73;;;;;;;;;;4219740;33;20557;-73
2023/05/20 10:04:08;;;;;;;20.83;9.32;;;;;;;;;;4221521;33;20039;-74
2023/05/20 10:06:42;;;;;;;21.00;10.98;;;;;;;;;;4222626;33;20039;-73
2023/05/20 10:09:18;;;;;;;18.37;9.68;;;;;;;;;;4218921;33;20062;-73
2023/05/20 10:11:44;;;;;;;13.75;9.20;;;;;;;;;;4220223;33;20050;-73
2023/05/20 10:14:25;;;;;;;16.58;9.77;;;;;;;;;;4220150;33;20430;-73
2023/05/20 10:17:23;;;;;;;14.50;9.50;;;;;;;;;;4220235;33;20051;-73
2023/05/20 10:19:56;;;;;;;12.52;9.45;;;;;;;;;;4204653;34;20094;-73
2023/05/20 10:22:30;;;;;;;22.27;9.85;;;;;;;;;;4215677;33;20051;-74
2023/05/20 10:24:57;;;;;;;16.67;9.20;;;;;;;;;;4209568;33;20363;-74
2023/05/20 10:27:24;;;;;;;13.10;9.05;;;;;;;;;;4229362;33;20397;-73
2023/05/20 10:29:51;;;;;;;17.90;9.93;;;;;;;;;;4213914;34;20421;-73
2023/05/20 10:32:24;;;;;;;15.02;9.30;;;;;;;;;;4212077;33;20080;-74
2023/05/20 10:34:50;;;;;;;12.90;9.52;;;;;;;;;;4210460;34;20073;-72
2023/05/20 10:37:21;;;;;;;14.27;8.95;;;;;;;;;;4211299;34;20047;-73
2023/05/20 10:39:48;;;;;;;13.48;10.15;;;;;;;;;;4209993;34;20069;-72
2023/05/20 10:42:14;;;;;;;15.95;10.32;;;;;;;;;;4215596;34;20482;-74
2023/05/20 10:44:43;;;;;;;18.30;10.48;;;;;;;;;;4205927;34;20080;-74
2023/05/20 10:47:10;;;;;;;16.83;9.60;;;;;;;;;;4216412;34;20086;-73
2023/05/20 10:49:40;;;;;;;19.70;9.75;;;;;;;;;;4207483;34;20047;-73
2023/05/20 10:52:08;;;;;;;16.48;9.48;;;;;;;;;;4211029;34;20388;-73
2023/05/20 10:55:00;;;;;;;11.12;8.85;;;;;;;;;;4240559;33;20049;-77
2023/05/20 10:57:27;;;;;;;14.05;9.18;;;;;;;;;;4268132;33;20537;-75
2023/05/20 10:59:53;;;;;;;13.75;9.43;;;;;;;;;;4280371;33;20588;-75
2023/05/20 11:02:25;;;;;;;23.05;8.93;;;;;;;;;;4415253;27;20087;-73
2023/05/20 11:04:52;;;;;;;21.50;9.30;;;;;;;;;;4268842;33;20099;-74
2023/05/20 11:07:28;;;;;;;14.90;9.73;;;;;;;;;;4267619;33;20067;-74
2023/05/20 11:09:55;;;;;;;16.55;9.23;;;;;;;;;;4263832;33;20097;-74
2023/05/20 11:12:22;;;;;;;14.02;9.15;;;;;;;;;;4262341;33;20080;-74
2023/05/20 11:14:48;;;;;;;14.43;8.90;;;;;;;;;;4267608;33;20072;-75
2023/05/20 11:17:16;;;;;;;14.23;9.35;;;;;;;;;;4264708;33;20390;-73
2023/05/20 11:19:42;;;;;;;18.12;8.35;;;;;;;;;;4265389;33;20442;-75
2023/05/20 11:22:08;;;;;;;15.63;8.82;;;;;;;;;;4264486;33;20093;-74
2023/05/20 11:24:34;;;;;;;15.63;9.23;;;;;;;;;;4266582;33;20119;-74
2023/05/20 11:27:01;;;;;;;11.18;8.70;;;;;;;;;;4268955;33;20329;-73
2023/05/20 11:29:27;;;;;;;20.85;8.25;;;;;;;;;;4269100;33;20068;-75
2023/05/20 11:31:54;;;;;;;11.25;7.72;;;;;;;;;;4265650;33;20569;-75
2023/05/20 11:34:21;;;;;;;13.88;8.23;;;;;;;;;;4264380;33;20042;-75
2023/05/20 11:36:49;;;;;;;13.70;9.05;;;;;;;;;;4264476;33;20063;-75
2023/05/20 11:39:15;;;;;;;14.30;8.70;;;;;;;;;;4253883;33;20205;-76
2023/05/20 11:41:42;;;;;;;19.02;9.32;;;;;;;;;;4254577;33;20072;-76
2023/05/20 11:44:09;;;;;;;13.95;7.90;;;;;;;;;;4253531;33;20444;-75
2023/05/20 11:46:40;;;;;;;12.95;8.60;;;;;;;;;;4256379;33;20061;-78
2023/05/20 11:49:07;;;;;;;14.90;8.48;;;;;;;;;;4263902;33;20113;-77
2023/05/20 11:51:33;;;;;;;21.80;10.00;;;;;;;;;;4257083;33;20062;-77
2023/05/20 11:54:02;;;;;;;21.92;8.63;;;;;;;;;;4253239;33;20029;-78
2023/05/20 11:56:30;;;;;;;12.45;8.00;;;;;;;;;;4252048;33;20050;-77
2023/05/20 11:58:56;;;;;;;16.10;8.98;;;;;;;;;;4255575;33;20064;-78
2023/05/20 12:01:23;;;;;;;15.68;8.85;;;;;;;;;;4251486;33;20388;-77
2023/05/20 12:03:49;;;;;;;14.63;9.05;;;;;;;;;;4258554;33;20041;-78
2023/05/20 12:06:16;;;;;;;16.80;8.75;;;;;;;;;;4256730;33;20166;-78
2023/05/20 12:08:41;;;;;;;20.35;8.23;;;;;;;;;;4258810;33;20471;-76
2023/05/20 12:11:08;;;;;;;11.88;8.82;;;;;;;;;;4263422;33;20358;-83
2023/05/20 12:13:34;;;;;;;12.35;8.13;;;;;;;;;;4252382;33;20038;-77
2023/05/20 12:16:00;;;;;;;8.95;7.18;;;;;;;;;;4250346;33;20046;-78
2023/05/20 12:18:26;;;;;;;11.55;8.18;;;;;;;;;;4257164;33;20045;-77
2023/05/20 12:20:53;;;;;;;11.32;7.78;;;;;;;;;;4247647;33;20050;-76
2023/05/20 12:23:20;;;;;;;13.40;8.52;;;;;;;;;;4264413;33;20041;-77
2023/05/20 12:25:48;;;;;;;10.50;6.90;;;;;;;;;;4265565;33;20075;-77
2023/05/20 12:28:16;;;;;;;15.32;8.68;;;;;;;;;;4264370;33;20513;-76
2023/05/20 12:30:42;;;;;;;11.82;7.80;;;;;;;;;;4270742;33;20054;-77
2023/05/20 12:33:08;;;;;;;15.02;7.07;;;;;;;;;;4262812;33;20119;-80
2023/05/20 12:35:36;;;;;;;10.07;7.00;;;;;;;;;;4264685;33;20092;-77
2023/05/20 12:38:02;;;;;;;11.90;7.30;;;;;;;;;;4257977;33;20056;-77
2023/05/20 12:40:28;;;;;;;11.65;6.75;;;;;;;;;;4244307;33;20115;-77
2023/05/20 12:42:54;;;;;;;19.50;7.57;;;;;;;;;;4219946;33;20046;-74
2023/05/20 12:45:20;;;;;;;15.80;7.35;;;;;;;;;;4211584;33;20063;-76
2023/05/20 12:47:47;;;;;;;12.27;7.18;;;;;;;;;;4211965;34;20054;-74
2023/05/20 12:50:13;;;;;;;9.55;7.32;;;;;;;;;;4208286;34;20366;-77
2023/05/20 12:52:39;;;;;;;8.65;6.53;;;;;;;;;;4207952;34;20050;-75
2023/05/20 12:55:12;;;;;;;8.43;6.30;;;;;;;;;;4194666;34;20060;-74
2023/05/20 12:57:39;;;;;;;13.27;6.82;;;;;;;;;;4182221;34;20066;-73
2023/05/20 13:00:07;;;;;;;9.85;7.30;;;;;;;;;;4181978;34;20529;-75
2023/05/20 13:02:33;;;;;;;12.10;7.53;;;;;;;;;;4179174;34;20048;-77
2023/05/20 13:04:59;;;;;;;10.05;7.00;;;;;;;;;;4180751;34;20952;-80
2023/05/20 13:07:26;;;;;;;9.35;7.62;;;;;;;;;;4184163;34;20032;-77
2023/05/20 13:09:52;;;;;;;9.68;6.57;;;;;;;;;;4184509;34;20085;-77
2023/05/20 13:12:18;;;;;;;10.43;6.57;;;;;;;;;;4197921;34;20084;-82
2023/05/20 13:14:45;;;;;;;8.70;6.78;;;;;;;;;;4221411;33;20058;-78
2023/05/20 13:17:11;;;;;;;8.48;6.15;;;;;;;;;;4229078;33;20039;-75
2023/05/20 13:19:37;;;;;;;13.05;7.20;;;;;;;;;;4221311;33;20081;-76
2023/05/20 13:22:05;;;;;;;10.52;5.68;;;;;;;;;;4220031;33;20119;-75
2023/05/20 13:24:32;;;;;;;10.02;6.60;;;;;;;;;;4219981;33;20501;-75
2023/05/20 13:26:59;;;;;;;7.72;6.55;;;;;;;;;;4222672;33;20580;-75
2023/05/20 13:29:26;;;;;;;10.65;6.05;;;;;;;;;;4221022;33;20084;-74
2023/05/20 13:31:52;;;;;;;7.70;6.18;;;;;;;;;;4202523;34;20543;-75
2023/05/20 13:34:18;;;;;;;8.98;6.30;;;;;;;;;;4212426;33;20222;-75
2023/05/20 13:36:46;;;;;;;15.25;6.37;;;;;;;;;;4206496;34;20061;-75
2023/05/20 13:39:13;;;;;;;11.10;6.35;;;;;;;;;;4209825;34;20190;-75
2023/05/20 13:41:40;;;;;;;14.63;6.50;;;;;;;;;;4231755;33;20506;-75
2023/05/20 13:44:06;;;;;;;12.00;7.03;;;;;;;;;;4237778;33;20566;-74
2023/05/20 13:46:32;;;;;;;11.45;6.12;;;;;;;;;;4240272;33;20123;-76
2023/05/20 13:48:58;;;;;;;7.57;6.00;;;;;;;;;;4238070;33;20097;-74
2023/05/20 13:51:25;;;;;;;10.73;7.37;;;;;;;;;;4232780;33;20071;-75
2023/05/20 13:53:51;;;;;;;15.70;8.13;;;;;;;;;;4233262;33;20484;-75
2023/05/20 13:56:17;;;;;;;11.00;5.97;;;;;;;;;;4225934;33;20042;-73
2023/05/20 13:58:43;;;;;;;7.95;6.47;;;;;;;;;;4231708;33;20080;-75
2023/05/20 14:01:11;;;;;;;11.45;6.03;;;;;;;;;;4227438;33;20489;-76
2023/05/20 14:03:39;;;;;;;20.85;6.50;;;;;;;;;;4226343;33;20072;-75
2023/05/20 14:06:05;;;;;;;14.00;6.05;;;;;;;;;;4223261;33;20043;-76
2023/05/20 14:08:31;;;;;;;12.30;6.62;;;;;;;;;;4223386;33;20085;-74
2023/05/20 14:10:57;;;;;;;6.47;5.80;;;;;;;;;;4224889;33;20400;-75
2023/05/20 14:13:24;;;;;;;9.00;5.87;;;;;;;;;;4208689;33;20495;-76
2023/05/20 14:15:51;;;;;;;14.07;6.28;;;;;;;;;;4211526;34;20043;-76
2023/05/20 14:18:17;;;;;;;7.15;6.12;;;;;;;;;;4207499;34;20528;-75
2023/05/20 14:20:44;;;;;;;8.02;5.97;;;;;;;;;;4207800;34;20048;-78
2023/05/20 14:23:11;;;;;;;12.37;6.35;;;;;;;;;;4207298;34;20050;-76
2023/05/20 14:25:38;;;;;;;9.70;6.12;;;;;;;;;;4209064;34;20109;-77
2023/05/20 14:28:04;;;;;;;10.02;6.22;;;;;;;;;;4209037;34;20059;-77
2023/05/20 14:30:32;;;;;;;12.70;6.05;;;;;;;;;;4211394;34;20091;-76
2023/05/20 14:32:59;;;;;;;9.30;6.75;;;;;;;;;;4179567;34;20069;-76
2023/05/20 14:35:25;;;;;;;18.87;8.18;;;;;;;;;;4186433;34;20059;-76
2023/05/20 14:37:51;;;;;;;10.88;6.10;;;;;;;;;;4193116;34;20090;-75
2023/05/20 14:40:18;;;;;;;10.82;6.68;;;;;;;;;;4195383;34;20447;-76
2023/05/20 14:42:44;;;;;;;7.10;6.20;;;;;;;;;;4195108;34;20055;-75
2023/05/20 14:45:10;;;;;;;7.32;6.18;;;;;;;;;;4198586;34;20067;-76
2023/05/20 14:47:38;;;;;;;9.15;6.10;;;;;;;;;;4206016;34;20198;-77
2023/05/20 14:50:05;;;;;;;9.43;5.62;;;;;;;;;;4204642;34;20043;-75
2023/05/20 14:52:31;;;;;;;14.05;5.68;;;;;;;;;;4205775;34;20072;-75
2023/05/20 14:54:58;;;;;;;10.10;5.87;;;;;;;;;;4204802;34;20121;-75
2023/05/20 14:57:25;;;;;;;10.65;6.12;;;;;;;;;;4205265;34;20059;-75
2023/05/20 14:59:51;;;;;;;7.75;5.80;;;;;;;;;;4205062;34;20055;-76
2023/05/20 15:02:18;;;;;;;9.68;5.37;;;;;;;;;;4214699;33;20143;-75
2023/05/20 15:04:46;;;;;;;13.10;6.07;;;;;;;;;;4207756;34;20563;-75
2023/05/20 15:07:16;;;;;;;6.70;5.07;;;;;;;;;;4207930;34;20039;-74
2023/05/20 15:09:42;;;;;;;12.98;6.18;;;;;;;;;;4193701;34;20057;-75
2023/05/20 15:12:10;;;;;;;8.93;5.37;;;;;;;;;;4208137;34;20215;-75
2023/05/20 15:14:36;;;;;;;14.57;5.93;;;;;;;;;;4209400;34;20065;-74
2023/05/20 15:17:03;;;;;;;8.40;5.95;;;;;;;;;;4208330;34;20048;-75
2023/05/20 15:19:30;;;;;;;6.65;6.00;;;;;;;;;;4208297;34;20382;-74
2023/05/20 15:21:56;;;;;;;5.60;4.97;;;;;;;;;;4208005;34;20073;-74
2023/05/20 15:24:23;;;;;;;12.52;5.60;;;;;;;;;;4209264;34;20218;-74
2023/05/20 15:26:50;;;;;;;7.53;6.28;;;;;;;;;;4208751;34;20577;-75
2023/05/20 15:29:17;;;;;;;8.20;5.90;;;;;;;;;;4207768;34;20074;-75
2023/05/20 15:31:45;;;;;;;12.52;5.85;;;;;;;;;;4207019;34;20093;-73
2023/05/20 15:34:11;;;;;;;10.43;4.85;;;;;;;;;;4208520;34;20222;-76
2023/05/20 15:36:37;;;;;;;5.62;5.07;;;;;;;;;;4208540;34;20406;-74
2023/05/20 15:39:03;;;;;;;10.60;5.50;;;;;;;;;;4229349;33;20114;-75
2023/05/20 15:41:31;;;;;;;11.52;5.80;;;;;;;;;;4246671;33;20041;-73
2023/05/20 15:43:57;;;;;;;8.10;5.87;;;;;;;;;;4249980;33;20117;-74
2023/05/20 15:46:24;;;;;;;7.07;6.35;;;;;;;;;;4250637;33;20110;-74
2023/05/20 15:48:50;;;;;;;13.07;6.30;;;;;;;;;;4262488;33;20050;-75
2023/05/20 15:51:17;;;;;;;10.88;5.55;;;;;;;;;;4265177;33;20054;-74
2023/05/20 15:53:43;;;;;;;5.28;4.55;;;;;;;;;;4264036;33;20089;-72
2023/05/20 15:56:11;;;;;;;14.52;7.87;;;;;;;;;;4267742;33;20062;-74
2023/05/20 15:58:38;;;;;;;9.23;5.05;;;;;;;;;;4268096;33;20068;-73
2023/05/20 16:01:05;;;;;;;15.77;5.87;;;;;;;;;;4267328;33;20057;-73
2023/05/20 16:03:34;;;;;;;9.20;5.28;;;;;;;;;;4264928;33;20060;-74
2023/05/20 16:06:01;;;;;;;10.88;6.22;;;;;;;;;;4262116;33;20054;-71
2023/05/20 16:08:28;;;;;;;7.35;5.03;;;;;;;;;;4265171;33;20130;-74
2023/05/20 16:10:56;;;;;;;9.93;5.18;;;;;;;;;;4264825;33;20045;-74
2023/05/20 16:13:22;;;;;;;15.30;5.18;;;;;;;;;;4264984;33;20109;-74
2023/05/20 16:15:49;;;;;;;11.25;4.95;;;;;;;;;;4263287;33;20115;-74
2023/05/20 16:18:15;;;;;;;12.10;6.45;;;;;;;;;;4263770;33;20063;-73
2023/05/20 16:20:42;;;;;;;20.80;6.57;;;;;;;;;;4263942;33;20054;-74
2023/05/20 16:23:08;;;;;;;6.87;5.72;;;;;;;;;;4245820;33;20095;-75
2023/05/20 16:25:34;;;;;;;11.00;7.07;;;;;;;;;;4264393;33;20055;-76
2023/05/20 16:28:00;;;;;;;9.90;5.82;;;;;;;;;;4262737;33;20149;-74